sensor_id;sensor_type;location;lat;lon;timestamp;P1;durP1;ratioP1;P2;durP2;ratioP2
10281;SDS011;5186;59.472;18.048;2023-04-25T00:01:59;4.43;;;3.57;;
10281;SDS011;5186;59.472;18.048;2023-04-25T00:04:25;5.80;;;4.10;;
10281;SDS011;5186;59.472;18.048;2023-04-25T00:06:52;5.30;;;3.70;;
10281;SDS011;5186;59.472;18.048;2023-04-25T00:09:21;6.57;;;3.50;;
10281;SDS011;5186;59.472;18.048;2023-04-25T00:11:47;5.63;;;3.73;;
10281;SDS011;5186;59.472;18.048;2023-04-25T00:14:13;3.60;;;2.87;;
10281;SDS011;5186;59.472;18.048;2023-04-25T00:16:39;4.13;;;2.90;;
10281;SDS011;5186;59.472;18.048;2023-04-25T00:19:06;4.73;;;3.17;;
10281;SDS011;5186;59.472;18.048;2023-04-25T00:21:32;3.33;;;3.03;;
10281;SDS011;5186;59.472;18.048;2023-04-25T00:23:58;4.47;;;3.13;;
10281;SDS011;5186;59.472;18.048;2023-04-25T00:26:25;3.80;;;3.00;;
10281;SDS011;5186;59.472;18.048;2023-04-25T00:28:51;3.90;;;3.00;;
10281;SDS011;5186;59.472;18.048;2023-04-25T00:31:16;4.43;;;3.27;;
10281;SDS011;5186;59.472;18.048;2023-04-25T00:33:42;3.43;;;3.13;;
10281;SDS011;5186;59.472;18.048;2023-04-25T00:36:08;3.13;;;2.80;;
10281;SDS011;5186;59.472;18.048;2023-04-25T00:38:34;6.63;;;3.13;;
10281;SDS011;5186;59.472;18.048;2023-04-25T00:40:59;7.03;;;3.20;;
10281;SDS011;5186;59.472;18.048;2023-04-25T00:43:26;5.40;;;3.57;;
10281;SDS011;5186;59.472;18.048;2023-04-25T00:45:52;5.93;;;3.70;;
10281;SDS011;5186;59.472;18.048;2023-04-25T00:48:20;4.07;;;3.20;;
10281;SDS011;5186;59.472;18.048;2023-04-25T00:50:51;6.67;;;3.53;;
10281;SDS011;5186;59.472;18.048;2023-04-25T00:53:22;5.00;;;3.70;;
10281;SDS011;5186;59.472;18.048;2023-04-25T00:55:48;5.20;;;3.70;;
10281;SDS011;5186;59.472;18.048;2023-04-25T00:58:16;5.27;;;3.27;;
10281;SDS011;5186;59.472;18.048;2023-04-25T01:00:42;4.33;;;3.13;;
10281;SDS011;5186;59.472;18.048;2023-04-25T01:03:10;4.43;;;2.93;;
10281;SDS011;5186;59.472;18.048;2023-04-25T01:05:36;3.80;;;3.13;;
10281;SDS011;5186;59.472;18.048;2023-04-25T01:08:02;3.67;;;3.10;;
10281;SDS011;5186;59.472;18.048;2023-04-25T01:10:28;3.27;;;2.83;;
10281;SDS011;5186;59.472;18.048;2023-04-25T01:12:53;3.73;;;2.50;;
10281;SDS011;5186;59.472;18.048;2023-04-25T01:15:19;4.97;;;3.37;;
10281;SDS011;5186;59.472;18.048;2023-04-25T01:17:45;3.80;;;2.63;;
10281;SDS011;5186;59.472;18.048;2023-04-25T01:20:11;4.23;;;3.00;;
10281;SDS011;5186;59.472;18.048;2023-04-25T01:22:38;3.67;;;3.00;;
10281;SDS011;5186;59.472;18.048;2023-04-25T01:25:04;5.23;;;3.23;;
10281;SDS011;5186;59.472;18.048;2023-04-25T01:27:31;4.60;;;3.53;;
10281;SDS011;5186;59.472;18.048;2023-04-25T01:29:57;8.53;;;3.73;;
10281;SDS011;5186;59.472;18.048;2023-04-25T01:32:24;5.90;;;3.97;;
10281;SDS011;5186;59.472;18.048;2023-04-25T01:34:51;5.80;;;3.90;;
10281;SDS011;5186;59.472;18.048;2023-04-25T01:37:17;6.57;;;4.70;;
10281;SDS011;5186;59.472;18.048;2023-04-25T01:39:42;8.73;;;4.40;;
10281;SDS011;5186;59.472;18.048;2023-04-25T01:42:09;6.50;;;3.80;;
10281;SDS011;5186;59.472;18.048;2023-04-25T01:44:35;6.17;;;4.00;;
10281;SDS011;5186;59.472;18.048;2023-04-25T01:47:00;5.60;;;4.03;;
10281;SDS011;5186;59.472;18.048;2023-04-25T01:49:26;5.03;;;3.90;;
10281;SDS011;5186;59.472;18.048;2023-04-25T01:51:51;16.80;;;4.43;;
10281;SDS011;5186;59.472;18.048;2023-04-25T01:54:17;4.37;;;3.77;;
10281;SDS011;5186;59.472;18.048;2023-04-25T01:56:49;6.87;;;3.70;;
10281;SDS011;5186;59.472;18.048;2023-04-25T01:59:15;5.03;;;3.57;;
10281;SDS011;5186;59.472;18.048;2023-04-25T02:01:40;4.93;;;3.70;;
10281;SDS011;5186;59.472;18.048;2023-04-25T02:04:06;3.87;;;3.47;;
10281;SDS011;5186;59.472;18.048;2023-04-25T02:06:32;3.27;;;2.80;;
10281;SDS011;5186;59.472;18.048;2023-04-25T02:08:57;3.53;;;3.03;;
10281;SDS011;5186;59.472;18.048;2023-04-25T02:11:23;3.33;;;2.93;;
10281;SDS011;5186;59.472;18.048;2023-04-25T02:13:48;4.17;;;3.07;;
10281;SDS011;5186;59.472;18.048;2023-04-25T02:16:14;3.73;;;3.03;;
10281;SDS011;5186;59.472;18.048;2023-04-25T02:18:39;5.43;;;2.93;;
10281;SDS011;5186;59.472;18.048;2023-04-25T02:21:05;3.87;;;2.87;;
10281;SDS011;5186;59.472;18.048;2023-04-25T02:23:31;3.83;;;3.17;;
10281;SDS011;5186;59.472;18.048;2023-04-25T02:25:56;4.40;;;2.90;;
10281;SDS011;5186;59.472;18.048;2023-04-25T02:28:23;4.30;;;2.93;;
10281;SDS011;5186;59.472;18.048;2023-04-25T02:30:49;5.80;;;2.87;;
10281;SDS011;5186;59.472;18.048;2023-04-25T02:33:15;2.40;;;2.10;;
10281;SDS011;5186;59.472;18.048;2023-04-25T02:35:42;3.00;;;1.87;;
10281;SDS011;5186;59.472;18.048;2023-04-25T02:38:07;3.27;;;2.07;;
10281;SDS011;5186;59.472;18.048;2023-04-25T02:40:33;3.33;;;2.13;;
10281;SDS011;5186;59.472;18.048;2023-04-25T02:42:58;2.83;;;2.20;;
10281;SDS011;5186;59.472;18.048;2023-04-25T02:45:24;2.90;;;1.90;;
10281;SDS011;5186;59.472;18.048;2023-04-25T02:47:49;2.80;;;1.97;;
10281;SDS011;5186;59.472;18.048;2023-04-25T02:50:15;2.23;;;1.70;;
10281;SDS011;5186;59.472;18.048;2023-04-25T02:52:40;1.87;;;1.60;;
10281;SDS011;5186;59.472;18.048;2023-04-25T02:55:06;3.63;;;1.70;;
10281;SDS011;5186;59.472;18.048;2023-04-25T02:57:32;2.40;;;1.80;;
10281;SDS011;5186;59.472;18.048;2023-04-25T02:59:58;1.70;;;1.30;;
10281;SDS011;5186;59.472;18.048;2023-04-25T03:02:23;1.70;;;1.60;;
10281;SDS011;5186;59.472;18.048;2023-04-25T03:04:49;1.97;;;1.60;;
10281;SDS011;5186;59.472;18.048;2023-04-25T03:07:15;1.90;;;1.20;;
10281;SDS011;5186;59.472;18.048;2023-04-25T03:09:40;1.90;;;1.40;;
10281;SDS011;5186;59.472;18.048;2023-04-25T03:12:06;1.93;;;1.40;;
10281;SDS011;5186;59.472;18.048;2023-04-25T03:14:32;1.50;;;1.23;;
10281;SDS011;5186;59.472;18.048;2023-04-25T03:16:58;2.33;;;1.07;;
10281;SDS011;5186;59.472;18.048;2023-04-25T03:19:23;1.37;;;1.20;;
10281;SDS011;5186;59.472;18.048;2023-04-25T03:21:49;1.30;;;1.10;;
10281;SDS011;5186;59.472;18.048;2023-04-25T03:24:15;1.83;;;0.90;;
10281;SDS011;5186;59.472;18.048;2023-04-25T03:26:40;1.33;;;1.00;;
10281;SDS011;5186;59.472;18.048;2023-04-25T03:29:06;0.93;;;0.80;;
10281;SDS011;5186;59.472;18.048;2023-04-25T03:31:31;1.10;;;1.00;;
10281;SDS011;5186;59.472;18.048;2023-04-25T03:33:57;1.10;;;0.87;;
10281;SDS011;5186;59.472;18.048;2023-04-25T03:36:22;1.00;;;0.90;;
10281;SDS011;5186;59.472;18.048;2023-04-25T03:38:48;1.70;;;0.90;;
10281;SDS011;5186;59.472;18.048;2023-04-25T03:41:14;1.37;;;0.93;;
10281;SDS011;5186;59.472;18.048;2023-04-25T03:43:39;0.87;;;0.87;;
10281;SDS011;5186;59.472;18.048;2023-04-25T03:46:05;1.53;;;0.80;;
10281;SDS011;5186;59.472;18.048;2023-04-25T03:48:30;0.80;;;0.80;;
10281;SDS011;5186;59.472;18.048;2023-04-25T03:50:56;1.27;;;0.93;;
10281;SDS011;5186;59.472;18.048;2023-04-25T03:53:22;2.30;;;0.73;;
10281;SDS011;5186;59.472;18.048;2023-04-25T03:55:47;1.00;;;0.70;;
10281;SDS011;5186;59.472;18.048;2023-04-25T03:58:13;0.67;;;0.60;;
10281;SDS011;5186;59.472;18.048;2023-04-25T04:00:38;1.03;;;0.93;;
10281;SDS011;5186;59.472;18.048;2023-04-25T04:03:04;0.50;;;0.50;;
10281;SDS011;5186;59.472;18.048;2023-04-25T04:05:29;0.50;;;0.50;;
10281;SDS011;5186;59.472;18.048;2023-04-25T04:07:55;0.67;;;0.67;;
10281;SDS011;5186;59.472;18.048;2023-04-25T04:10:22;1.33;;;0.80;;
10281;SDS011;5186;59.472;18.048;2023-04-25T04:12:48;0.57;;;0.57;;
10281;SDS011;5186;59.472;18.048;2023-04-25T04:15:13;0.90;;;0.80;;
10281;SDS011;5186;59.472;18.048;2023-04-25T04:17:39;0.97;;;0.80;;
10281;SDS011;5186;59.472;18.048;2023-04-25T04:20:06;1.97;;;0.70;;
10281;SDS011;5186;59.472;18.048;2023-04-25T04:22:32;1.60;;;0.73;;
10281;SDS011;5186;59.472;18.048;2023-04-25T04:24:58;1.63;;;0.70;;
10281;SDS011;5186;59.472;18.048;2023-04-25T04:27:23;1.20;;;1.00;;
10281;SDS011;5186;59.472;18.048;2023-04-25T04:29:49;1.00;;;0.90;;
10281;SDS011;5186;59.472;18.048;2023-04-25T04:32:17;2.10;;;1.00;;
10281;SDS011;5186;59.472;18.048;2023-04-25T04:34:42;1.03;;;0.80;;
10281;SDS011;5186;59.472;18.048;2023-04-25T04:37:08;1.90;;;0.87;;
10281;SDS011;5186;59.472;18.048;2023-04-25T04:39:34;1.00;;;0.90;;
10281;SDS011;5186;59.472;18.048;2023-04-25T04:42:00;1.60;;;1.10;;
10281;SDS011;5186;59.472;18.048;2023-04-25T04:44:27;2.33;;;1.17;;
10281;SDS011;5186;59.472;18.048;2023-04-25T04:46:53;1.00;;;0.90;;
10281;SDS011;5186;59.472;18.048;2023-04-25T04:49:19;2.07;;;1.00;;
10281;SDS011;5186;59.472;18.048;2023-04-25T04:51:45;2.43;;;1.40;;
10281;SDS011;5186;59.472;18.048;2023-04-25T04:54:11;1.63;;;1.10;;
10281;SDS011;5186;59.472;18.048;2023-04-25T04:56:37;3.20;;;1.30;;
10281;SDS011;5186;59.472;18.048;2023-04-25T04:59:03;1.40;;;1.27;;
10281;SDS011;5186;59.472;18.048;2023-04-25T05:01:28;1.87;;;1.40;;
10281;SDS011;5186;59.472;18.048;2023-04-25T05:03:55;2.00;;;1.40;;
10281;SDS011;5186;59.472;18.048;2023-04-25T05:06:25;1.60;;;1.50;;
10281;SDS011;5186;59.472;18.048;2023-04-25T05:08:52;2.17;;;1.50;;
10281;SDS011;5186;59.472;18.048;2023-04-25T05:11:18;2.80;;;1.47;;
10281;SDS011;5186;59.472;18.048;2023-04-25T05:13:44;2.20;;;1.57;;
10281;SDS011;5186;59.472;18.048;2023-04-25T05:16:10;2.00;;;1.50;;
10281;SDS011;5186;59.472;18.048;2023-04-25T05:18:36;2.20;;;1.73;;
10281;SDS011;5186;59.472;18.048;2023-04-25T05:21:02;3.53;;;1.63;;
10281;SDS011;5186;59.472;18.048;2023-04-25T05:23:28;2.10;;;1.70;;
10281;SDS011;5186;59.472;18.048;2023-04-25T05:25:55;4.13;;;2.20;;
10281;SDS011;5186;59.472;18.048;2023-04-25T05:28:20;4.40;;;2.03;;
10281;SDS011;5186;59.472;18.048;2023-04-25T05:30:46;2.37;;;1.83;;
10281;SDS011;5186;59.472;18.048;2023-04-25T05:33:12;2.57;;;2.03;;
10281;SDS011;5186;59.472;18.048;2023-04-25T05:35:37;5.57;;;1.80;;
10281;SDS011;5186;59.472;18.048;2023-04-25T05:38:03;4.63;;;2.20;;
10281;SDS011;5186;59.472;18.048;2023-04-25T05:40:28;3.40;;;1.97;;
10281;SDS011;5186;59.472;18.048;2023-04-25T05:42:54;4.57;;;2.30;;
10281;SDS011;5186;59.472;18.048;2023-04-25T05:45:20;4.30;;;2.03;;
10281;SDS011;5186;59.472;18.048;2023-04-25T05:47:45;2.67;;;2.03;;
10281;SDS011;5186;59.472;18.048;2023-04-25T05:50:11;3.10;;;2.13;;
10281;SDS011;5186;59.472;18.048;2023-04-25T05:52:36;4.20;;;2.40;;
10281;SDS011;5186;59.472;18.048;2023-04-25T05:55:02;4.30;;;2.10;;
10281;SDS011;5186;59.472;18.048;2023-04-25T05:57:28;4.97;;;2.40;;
10281;SDS011;5186;59.472;18.048;2023-04-25T05:59:53;4.63;;;2.60;;
10281;SDS011;5186;59.472;18.048;2023-04-25T06:02:19;3.50;;;2.30;;
10281;SDS011;5186;59.472;18.048;2023-04-25T06:04:46;5.03;;;2.77;;
10281;SDS011;5186;59.472;18.048;2023-04-25T06:07:12;3.03;;;2.13;;
10281;SDS011;5186;59.472;18.048;2023-04-25T06:09:38;4.40;;;2.10;;
10281;SDS011;5186;59.472;18.048;2023-04-25T06:12:05;3.63;;;2.30;;
10281;SDS011;5186;59.472;18.048;2023-04-25T06:14:31;3.10;;;2.43;;
10281;SDS011;5186;59.472;18.048;2023-04-25T06:16:56;3.73;;;2.10;;
10281;SDS011;5186;59.472;18.048;2023-04-25T06:19:22;2.93;;;2.00;;
10281;SDS011;5186;59.472;18.048;2023-04-25T06:21:47;4.43;;;2.20;;
10281;SDS011;5186;59.472;18.048;2023-04-25T06:24:13;3.50;;;2.50;;
10281;SDS011;5186;59.472;18.048;2023-04-25T06:26:38;3.90;;;2.40;;
10281;SDS011;5186;59.472;18.048;2023-04-25T06:29:04;2.63;;;2.20;;
10281;SDS011;5186;59.472;18.048;2023-04-25T06:31:30;6.07;;;2.23;;
10281;SDS011;5186;59.472;18.048;2023-04-25T06:33:57;2.80;;;1.93;;
10281;SDS011;5186;59.472;18.048;2023-04-25T06:36:23;4.60;;;2.23;;
10281;SDS011;5186;59.472;18.048;2023-04-25T06:38:50;5.20;;;2.40;;
10281;SDS011;5186;59.472;18.048;2023-04-25T06:41:17;5.57;;;1.87;;
10281;SDS011;5186;59.472;18.048;2023-04-25T06:43:43;4.90;;;2.00;;
10281;SDS011;5186;59.472;18.048;2023-04-25T06:46:09;2.30;;;1.73;;
10281;SDS011;5186;59.472;18.048;2023-04-25T06:48:35;3.87;;;2.17;;
10281;SDS011;5186;59.472;18.048;2023-04-25T06:51:00;2.73;;;1.90;;
10281;SDS011;5186;59.472;18.048;2023-04-25T06:53:26;4.47;;;2.37;;
10281;SDS011;5186;59.472;18.048;2023-04-25T06:55:51;3.23;;;2.03;;
10281;SDS011;5186;59.472;18.048;2023-04-25T06:58:17;3.60;;;2.10;;
10281;SDS011;5186;59.472;18.048;2023-04-25T07:00:43;5.30;;;2.30;;
10281;SDS011;5186;59.472;18.048;2023-04-25T07:03:08;3.83;;;1.57;;
10281;SDS011;5186;59.472;18.048;2023-04-25T07:05:34;4.17;;;1.70;;
10281;SDS011;5186;59.472;18.048;2023-04-25T07:08:00;4.00;;;1.87;;
10281;SDS011;5186;59.472;18.048;2023-04-25T07:10:26;3.97;;;1.90;;
10281;SDS011;5186;59.472;18.048;2023-04-25T07:12:51;2.93;;;2.17;;
10281;SDS011;5186;59.472;18.048;2023-04-25T07:15:17;3.83;;;1.73;;
10281;SDS011;5186;59.472;18.048;2023-04-25T07:17:42;2.67;;;1.50;;
10281;SDS011;5186;59.472;18.048;2023-04-25T07:20:08;4.00;;;2.00;;
10281;SDS011;5186;59.472;18.048;2023-04-25T07:22:35;2.67;;;1.53;;
10281;SDS011;5186;59.472;18.048;2023-04-25T07:25:00;2.50;;;1.80;;
10281;SDS011;5186;59.472;18.048;2023-04-25T07:27:26;3.00;;;1.77;;
10281;SDS011;5186;59.472;18.048;2023-04-25T07:29:52;2.13;;;1.70;;
10281;SDS011;5186;59.472;18.048;2023-04-25T07:32:18;2.83;;;2.00;;
10281;SDS011;5186;59.472;18.048;2023-04-25T07:34:44;2.27;;;1.80;;
10281;SDS011;5186;59.472;18.048;2023-04-25T07:37:10;2.20;;;1.60;;
10281;SDS011;5186;59.472;18.048;2023-04-25T07:39:36;2.20;;;1.70;;
10281;SDS011;5186;59.472;18.048;2023-04-25T07:42:02;3.17;;;1.93;;
10281;SDS011;5186;59.472;18.048;2023-04-25T07:44:28;2.80;;;1.93;;
10281;SDS011;5186;59.472;18.048;2023-04-25T07:46:55;3.50;;;2.10;;
10281;SDS011;5186;59.472;18.048;2023-04-25T07:49:21;3.07;;;1.83;;
10281;SDS011;5186;59.472;18.048;2023-04-25T07:51:46;2.80;;;1.97;;
10281;SDS011;5186;59.472;18.048;2023-04-25T07:54:13;3.03;;;2.27;;
10281;SDS011;5186;59.472;18.048;2023-04-25T07:56:39;2.83;;;2.13;;
10281;SDS011;5186;59.472;18.048;2023-04-25T07:59:05;2.20;;;2.00;;
10281;SDS011;5186;59.472;18.048;2023-04-25T08:01:31;3.57;;;2.03;;
10281;SDS011;5186;59.472;18.048;2023-04-25T08:03:56;2.90;;;1.93;;
10281;SDS011;5186;59.472;18.048;2023-04-25T08:06:22;2.60;;;1.80;;
10281;SDS011;5186;59.472;18.048;2023-04-25T08:08:47;6.70;;;2.23;;
10281;SDS011;5186;59.472;18.048;2023-04-25T08:11:13;4.20;;;2.43;;
10281;SDS011;5186;59.472;18.048;2023-04-25T08:13:39;3.77;;;2.20;;
10281;SDS011;5186;59.472;18.048;2023-04-25T08:16:04;5.03;;;2.30;;
10281;SDS011;5186;59.472;18.048;2023-04-25T08:18:30;4.43;;;2.80;;
10281;SDS011;5186;59.472;18.048;2023-04-25T08:20:55;3.17;;;2.63;;
10281;SDS011;5186;59.472;18.048;2023-04-25T08:23:21;3.27;;;2.40;;
10281;SDS011;5186;59.472;18.048;2023-04-25T08:25:47;3.93;;;2.40;;
10281;SDS011;5186;59.472;18.048;2023-04-25T08:28:12;3.87;;;2.47;;
10281;SDS011;5186;59.472;18.048;2023-04-25T08:30:38;2.93;;;2.27;;
10281;SDS011;5186;59.472;18.048;2023-04-25T08:33:05;4.47;;;2.40;;
10281;SDS011;5186;59.472;18.048;2023-04-25T08:35:30;4.00;;;2.60;;
10281;SDS011;5186;59.472;18.048;2023-04-25T08:37:58;5.27;;;2.30;;
10281;SDS011;5186;59.472;18.048;2023-04-25T08:40:23;2.97;;;2.40;;
10281;SDS011;5186;59.472;18.048;2023-04-25T08:42:53;5.53;;;2.70;;
10281;SDS011;5186;59.472;18.048;2023-04-25T08:45:20;4.03;;;2.53;;
10281;SDS011;5186;59.472;18.048;2023-04-25T08:47:46;4.67;;;2.90;;
10281;SDS011;5186;59.472;18.048;2023-04-25T08:50:14;3.80;;;2.67;;
10281;SDS011;5186;59.472;18.048;2023-04-25T08:52:43;4.90;;;2.80;;
10281;SDS011;5186;59.472;18.048;2023-04-25T08:55:13;4.07;;;2.57;;
10281;SDS011;5186;59.472;18.048;2023-04-25T08:57:40;4.20;;;2.80;;
10281;SDS011;5186;59.472;18.048;2023-04-25T09:00:08;3.70;;;2.50;;
10281;SDS011;5186;59.472;18.048;2023-04-25T09:02:38;3.53;;;2.60;;
10281;SDS011;5186;59.472;18.048;2023-04-25T09:05:05;3.47;;;2.60;;
10281;SDS011;5186;59.472;18.048;2023-04-25T09:07:32;2.87;;;2.43;;
10281;SDS011;5186;59.472;18.048;2023-04-25T09:09:57;3.40;;;2.43;;
10281;SDS011;5186;59.472;18.048;2023-04-25T09:12:28;4.20;;;2.60;;
10281;SDS011;5186;59.472;18.048;2023-04-25T09:15:01;4.70;;;2.87;;
10281;SDS011;5186;59.472;18.048;2023-04-25T09:17:31;4.77;;;3.23;;
10281;SDS011;5186;59.472;18.048;2023-04-25T09:20:07;4.17;;;3.20;;
10281;SDS011;5186;59.472;18.048;2023-04-25T09:22:34;4.63;;;3.50;;
10281;SDS011;5186;59.472;18.048;2023-04-25T09:25:02;4.53;;;3.20;;
10281;SDS011;5186;59.472;18.048;2023-04-25T09:27:29;4.13;;;3.37;;
10281;SDS011;5186;59.472;18.048;2023-04-25T09:29:58;4.63;;;3.37;;
10281;SDS011;5186;59.472;18.048;2023-04-25T09:32:27;5.07;;;3.57;;
10281;SDS011;5186;59.472;18.048;2023-04-25T09:34:54;5.00;;;3.63;;
10281;SDS011;5186;59.472;18.048;2023-04-25T09:37:22;4.70;;;3.03;;
10281;SDS011;5186;59.472;18.048;2023-04-25T09:39:58;5.17;;;2.70;;
10281;SDS011;5186;59.472;18.048;2023-04-25T09:42:28;4.33;;;2.97;;
10281;SDS011;5186;59.472;18.048;2023-04-25T09:44:56;4.07;;;3.30;;
10281;SDS011;5186;59.472;18.048;2023-04-25T09:47:23;4.13;;;3.30;;
10281;SDS011;5186;59.472;18.048;2023-04-25T09:49:51;6.73;;;3.40;;
10281;SDS011;5186;59.472;18.048;2023-04-25T09:52:19;4.33;;;2.97;;
10281;SDS011;5186;59.472;18.048;2023-04-25T09:54:47;5.40;;;3.67;;
10281;SDS011;5186;59.472;18.048;2023-04-25T09:57:17;5.17;;;3.43;;
10281;SDS011;5186;59.472;18.048;2023-04-25T09:59:45;6.30;;;4.17;;
10281;SDS011;5186;59.472;18.048;2023-04-25T10:02:19;6.80;;;4.27;;
10281;SDS011;5186;59.472;18.048;2023-04-25T10:04:55;5.93;;;4.30;;
10281;SDS011;5186;59.472;18.048;2023-04-25T10:07:25;6.33;;;4.20;;
10281;SDS011;5186;59.472;18.048;2023-04-25T10:09:59;5.30;;;3.97;;
10281;SDS011;5186;59.472;18.048;2023-04-25T10:12:28;5.20;;;3.83;;
10281;SDS011;5186;59.472;18.048;2023-04-25T10:14:56;5.90;;;4.10;;
10281;SDS011;5186;59.472;18.048;2023-04-25T10:17:23;6.67;;;4.07;;
10281;SDS011;5186;59.472;18.048;2023-04-25T10:19:49;5.67;;;4.20;;
10281;SDS011;5186;59.472;18.048;2023-04-25T10:25:01;7.50;;;4.80;;
10281;SDS011;5186;59.472;18.048;2023-04-25T10:27:30;6.77;;;5.10;;
10281;SDS011;5186;59.472;18.048;2023-04-25T10:30:03;6.97;;;5.07;;
10281;SDS011;5186;59.472;18.048;2023-04-25T10:32:31;5.97;;;4.87;;
10281;SDS011;5186;59.472;18.048;2023-04-25T10:34:58;7.47;;;5.03;;
10281;SDS011;5186;59.472;18.048;2023-04-25T10:37:36;6.87;;;4.87;;
10281;SDS011;5186;59.472;18.048;2023-04-25T10:40:08;7.77;;;5.03;;
10281;SDS011;5186;59.472;18.048;2023-04-25T10:42:35;6.93;;;5.00;;
10281;SDS011;5186;59.472;18.048;2023-04-25T10:45:09;6.90;;;5.03;;
10281;SDS011;5186;59.472;18.048;2023-04-25T10:47:35;5.97;;;4.87;;
10281;SDS011;5186;59.472;18.048;2023-04-25T10:50:08;6.77;;;4.90;;
10281;SDS011;5186;59.472;18.048;2023-04-25T10:52:34;6.80;;;5.10;;
10281;SDS011;5186;59.472;18.048;2023-04-25T10:54:59;6.23;;;4.63;;
10281;SDS011;5186;59.472;18.048;2023-04-25T10:57:29;7.47;;;4.90;;
10281;SDS011;5186;59.472;18.048;2023-04-25T11:05:19;7.40;;;4.97;;
10281;SDS011;5186;59.472;18.048;2023-04-25T11:08:01;7.67;;;5.60;;
10281;SDS011;5186;59.472;18.048;2023-04-25T11:10:29;7.30;;;5.00;;
10281;SDS011;5186;59.472;18.048;2023-04-25T11:12:56;8.40;;;5.47;;
10281;SDS011;5186;59.472;18.048;2023-04-25T11:15:22;6.33;;;5.07;;
10281;SDS011;5186;59.472;18.048;2023-04-25T11:17:47;6.23;;;5.17;;
10281;SDS011;5186;59.472;18.048;2023-04-25T11:20:13;6.13;;;5.23;;
10281;SDS011;5186;59.472;18.048;2023-04-25T11:22:40;6.43;;;5.03;;
10281;SDS011;5186;59.472;18.048;2023-04-25T11:25:09;8.37;;;5.87;;
10281;SDS011;5186;59.472;18.048;2023-04-25T11:27:51;7.30;;;5.10;;
10281;SDS011;5186;59.472;18.048;2023-04-25T11:30:26;5.90;;;4.73;;
10281;SDS011;5186;59.472;18.048;2023-04-25T11:32:53;6.37;;;5.00;;
10281;SDS011;5186;59.472;18.048;2023-04-25T11:35:20;5.87;;;4.67;;
10281;SDS011;5186;59.472;18.048;2023-04-25T11:37:47;6.17;;;5.03;;
10281;SDS011;5186;59.472;18.048;2023-04-25T11:40:14;7.27;;;4.93;;
10281;SDS011;5186;59.472;18.048;2023-04-25T11:42:43;7.57;;;5.37;;
10281;SDS011;5186;59.472;18.048;2023-04-25T11:45:10;6.73;;;5.27;;
10281;SDS011;5186;59.472;18.048;2023-04-25T11:47:36;6.60;;;5.50;;
10281;SDS011;5186;59.472;18.048;2023-04-25T11:50:02;7.03;;;4.83;;
10281;SDS011;5186;59.472;18.048;2023-04-25T11:52:42;6.57;;;5.50;;
10281;SDS011;5186;59.472;18.048;2023-04-25T11:55:10;8.03;;;5.90;;
10281;SDS011;5186;59.472;18.048;2023-04-25T11:57:38;6.17;;;5.33;;
10281;SDS011;5186;59.472;18.048;2023-04-25T12:00:09;9.43;;;5.97;;
10281;SDS011;5186;59.472;18.048;2023-04-25T12:02:36;7.20;;;5.70;;
10281;SDS011;5186;59.472;18.048;2023-04-25T12:05:02;7.17;;;5.40;;
10281;SDS011;5186;59.472;18.048;2023-04-25T12:07:31;7.03;;;5.50;;
10281;SDS011;5186;59.472;18.048;2023-04-25T12:09:56;7.30;;;5.37;;
10281;SDS011;5186;59.472;18.048;2023-04-25T12:12:26;6.80;;;5.50;;
10281;SDS011;5186;59.472;18.048;2023-04-25T12:14:52;7.97;;;5.50;;
10281;SDS011;5186;59.472;18.048;2023-04-25T12:17:20;6.13;;;5.53;;
10281;SDS011;5186;59.472;18.048;2023-04-25T12:19:47;10.77;;;5.67;;
10281;SDS011;5186;59.472;18.048;2023-04-25T12:22:20;7.97;;;5.40;;
10281;SDS011;5186;59.472;18.048;2023-04-25T12:24:46;6.97;;;5.37;;
10281;SDS011;5186;59.472;18.048;2023-04-25T12:27:13;7.03;;;5.80;;
10281;SDS011;5186;59.472;18.048;2023-04-25T12:29:51;8.30;;;5.53;;
10281;SDS011;5186;59.472;18.048;2023-04-25T12:32:18;8.37;;;6.00;;
10281;SDS011;5186;59.472;18.048;2023-04-25T12:34:44;7.90;;;6.20;;
10281;SDS011;5186;59.472;18.048;2023-04-25T12:37:10;6.37;;;5.77;;
10281;SDS011;5186;59.472;18.048;2023-04-25T12:39:36;7.57;;;5.50;;
10281;SDS011;5186;59.472;18.048;2023-04-25T12:42:02;6.30;;;5.27;;
10281;SDS011;5186;59.472;18.048;2023-04-25T12:44:28;7.27;;;5.60;;
10281;SDS011;5186;59.472;18.048;2023-04-25T12:46:54;7.03;;;5.50;;
10281;SDS011;5186;59.472;18.048;2023-04-25T12:49:19;7.17;;;5.90;;
10281;SDS011;5186;59.472;18.048;2023-04-25T12:51:45;7.97;;;5.50;;
10281;SDS011;5186;59.472;18.048;2023-04-25T12:54:11;7.20;;;6.07;;
10281;SDS011;5186;59.472;18.048;2023-04-25T12:56:37;9.53;;;6.10;;
10281;SDS011;5186;59.472;18.048;2023-04-25T12:59:03;8.00;;;5.93;;
10281;SDS011;5186;59.472;18.048;2023-04-25T13:01:29;8.40;;;6.30;;
10281;SDS011;5186;59.472;18.048;2023-04-25T13:03:55;7.70;;;6.20;;
10281;SDS011;5186;59.472;18.048;2023-04-25T13:06:20;7.57;;;6.20;;
10281;SDS011;5186;59.472;18.048;2023-04-25T13:08:46;8.63;;;6.00;;
10281;SDS011;5186;59.472;18.048;2023-04-25T13:11:12;10.77;;;6.33;;
10281;SDS011;5186;59.472;18.048;2023-04-25T13:13:39;7.87;;;6.23;;
10281;SDS011;5186;59.472;18.048;2023-04-25T13:16:05;8.70;;;6.67;;
10281;SDS011;5186;59.472;18.048;2023-04-25T13:18:31;7.70;;;5.53;;
10281;SDS011;5186;59.472;18.048;2023-04-25T13:20:58;9.20;;;6.30;;
10281;SDS011;5186;59.472;18.048;2023-04-25T13:23:25;10.90;;;6.67;;
10281;SDS011;5186;59.472;18.048;2023-04-25T13:25:52;9.00;;;6.67;;
10281;SDS011;5186;59.472;18.048;2023-04-25T13:28:18;8.93;;;5.90;;
10281;SDS011;5186;59.472;18.048;2023-04-25T13:30:44;8.33;;;6.43;;
10281;SDS011;5186;59.472;18.048;2023-04-25T13:33:10;7.53;;;5.47;;
10281;SDS011;5186;59.472;18.048;2023-04-25T13:35:37;10.50;;;7.00;;
10281;SDS011;5186;59.472;18.048;2023-04-25T13:38:03;8.77;;;6.17;;
10281;SDS011;5186;59.472;18.048;2023-04-25T13:40:29;8.33;;;6.27;;
10281;SDS011;5186;59.472;18.048;2023-04-25T13:42:55;8.97;;;6.37;;
10281;SDS011;5186;59.472;18.048;2023-04-25T13:45:21;11.20;;;6.80;;
10281;SDS011;5186;59.472;18.048;2023-04-25T13:47:47;8.43;;;6.37;;
10281;SDS011;5186;59.472;18.048;2023-04-25T13:50:12;7.77;;;6.17;;
10281;SDS011;5186;59.472;18.048;2023-04-25T13:52:38;9.67;;;6.73;;
10281;SDS011;5186;59.472;18.048;2023-04-25T13:55:05;10.17;;;6.27;;
10281;SDS011;5186;59.472;18.048;2023-04-25T13:57:32;9.53;;;6.77;;
10281;SDS011;5186;59.472;18.048;2023-04-25T13:59:58;9.57;;;6.30;;
10281;SDS011;5186;59.472;18.048;2023-04-25T14:02:24;11.60;;;6.37;;
10281;SDS011;5186;59.472;18.048;2023-04-25T14:04:50;8.43;;;6.03;;
10281;SDS011;5186;59.472;18.048;2023-04-25T14:07:16;9.60;;;6.27;;
10281;SDS011;5186;59.472;18.048;2023-04-25T14:09:43;7.17;;;5.87;;
10281;SDS011;5186;59.472;18.048;2023-04-25T14:12:08;11.67;;;6.23;;
10281;SDS011;5186;59.472;18.048;2023-04-25T14:14:34;10.17;;;6.67;;
10281;SDS011;5186;59.472;18.048;2023-04-25T14:17:00;8.47;;;6.03;;
10281;SDS011;5186;59.472;18.048;2023-04-25T14:19:26;9.33;;;6.33;;
10281;SDS011;5186;59.472;18.048;2023-04-25T14:21:51;10.97;;;6.50;;
10281;SDS011;5186;59.472;18.048;2023-04-25T14:24:17;10.60;;;6.50;;
10281;SDS011;5186;59.472;18.048;2023-04-25T14:26:42;8.80;;;5.40;;
10281;SDS011;5186;59.472;18.048;2023-04-25T14:29:08;8.43;;;6.27;;
10281;SDS011;5186;59.472;18.048;2023-04-25T14:31:36;7.50;;;6.03;;
10281;SDS011;5186;59.472;18.048;2023-04-25T14:34:03;11.07;;;6.30;;
10281;SDS011;5186;59.472;18.048;2023-04-25T14:36:29;8.37;;;6.23;;
10281;SDS011;5186;59.472;18.048;2023-04-25T14:38:56;10.70;;;6.50;;
10281;SDS011;5186;59.472;18.048;2023-04-25T14:41:22;8.07;;;7.07;;
10281;SDS011;5186;59.472;18.048;2023-04-25T14:43:48;9.77;;;7.50;;
10281;SDS011;5186;59.472;18.048;2023-04-25T14:46:13;11.33;;;7.70;;
10281;SDS011;5186;59.472;18.048;2023-04-25T14:48:39;14.03;;;8.17;;
10281;SDS011;5186;59.472;18.048;2023-04-25T14:51:05;11.97;;;8.37;;
10281;SDS011;5186;59.472;18.048;2023-04-25T14:53:31;11.03;;;8.30;;